PWSweather.com
Personal Weather Stations
Station Observations

CefaluIT

Lat: 38.0324, Lon: 14.02837

Elevation: 92

Station Type: LACROSSE WS 2350

http://www.meteocefalu.altervista.org

High Low Average
Temperature 67.6°F19.8°C 53.2°F11.8°C 60.5°F15.8°C
Dew Point 50.6°F10.3°C 43.4°F6.3°C 47.1°F8.4°C
Winds 21.0 mph 33.8 kmh 3.0 mph 4.8 kmh 12.0 mph SW19.3 kmh SW
Wind Gusts 21.0 mph33.8 kmh 3.0 mph4.8 kmh 13.0 mph20.9 kmh
Humidity 87% 48% 62%
Pressure 29.85 in1010.8 mb 29.66 in1004.4 mb -
Precipitation 0.38 in9.7 mm - -
Hour Temp Dew Point Humidity Winds Wind Gusts Pressure Precip Precip Rate Daily Precip Total
07:00 AM 60.1°F15.6°C 46.1°F7.8°C 60% 20.0 mph SW32.2 kmh SW 20.0 mph32.2 kmh 29.66 in1004.4 mb 0.00 in0.0 mm 0.00 in/hr0.0 mm/hr 0.00 in0.0 mm
07:10 AM 60.6°F15.9°C 46.2°F7.9°C 59% 16.0 mph SSW25.7 kmh SSW 17.0 mph27.4 kmh 29.67 in1004.7 mb 0.00 in0.0 mm 0.00 in/hr0.0 mm/hr 0.00 in0.0 mm
07:20 AM 61.0°F16.1°C 46.5°F8.1°C 59% 16.0 mph WSW25.7 kmh WSW 16.0 mph25.7 kmh 29.67 in1004.7 mb 0.00 in0.0 mm 0.00 in/hr0.0 mm/hr 0.00 in0.0 mm
07:30 AM 61.2°F16.2°C 46.3°F7.9°C 58% 15.0 mph SSW24.1 kmh SSW 14.0 mph22.5 kmh 29.67 in1004.7 mb 0.00 in0.0 mm 0.00 in/hr0.0 mm/hr 0.00 in0.0 mm
07:40 AM 61.2°F16.2°C 46.7°F8.2°C 59% 15.0 mph SW24.1 kmh SW 10.0 mph16.1 kmh 29.67 in1004.7 mb 0.00 in0.0 mm 0.00 in/hr0.0 mm/hr 0.00 in0.0 mm
07:50 AM 61.5°F16.4°C 47.1°F8.4°C 59% 20.0 mph SSW32.2 kmh SSW 20.0 mph32.2 kmh 29.67 in1004.7 mb 0.00 in0.0 mm 0.00 in/hr0.0 mm/hr 0.00 in0.0 mm
08:00 AM 62.1°F16.7°C 47.1°F8.4°C 58% 18.0 mph SW29.0 kmh SW 20.0 mph32.2 kmh 29.66 in1004.4 mb 0.00 in0.0 mm 0.00 in/hr0.0 mm/hr 0.00 in0.0 mm
08:10 AM 62.2°F16.8°C 47.3°F8.5°C 58% 18.0 mph WSW29.0 kmh WSW 21.0 mph33.8 kmh 29.67 in1004.7 mb 0.00 in0.0 mm 0.00 in/hr0.0 mm/hr 0.00 in0.0 mm
08:20 AM 62.2°F16.8°C 47.7°F8.7°C 59% 7.0 mph SW11.3 kmh SW 18.0 mph29.0 kmh 29.67 in1004.7 mb 0.00 in0.0 mm 0.00 in/hr0.0 mm/hr 0.00 in0.0 mm
08:30 AM 62.4°F16.9°C 47.4°F8.6°C 58% 15.0 mph SW24.1 kmh SW 16.0 mph25.7 kmh 29.67 in1004.7 mb 0.00 in0.0 mm 0.00 in/hr0.0 mm/hr 0.00 in0.0 mm
08:40 AM 62.7°F17.1°C 47.7°F8.7°C 58% 15.0 mph SW24.1 kmh SW 16.0 mph25.7 kmh 29.67 in1004.7 mb 0.00 in0.0 mm 0.00 in/hr0.0 mm/hr 0.00 in0.0 mm
08:50 AM 63.1°F17.3°C 47.7°F8.7°C 57% 13.0 mph SW20.9 kmh SW 13.0 mph20.9 kmh 29.67 in1004.7 mb 0.00 in0.0 mm 0.00 in/hr0.0 mm/hr 0.00 in0.0 mm
09:00 AM 63.1°F17.3°C 48.1°F8.9°C 58% 8.0 mph WSW12.9 kmh WSW 8.0 mph12.9 kmh 29.67 in1004.7 mb 0.00 in0.0 mm 0.00 in/hr0.0 mm/hr 0.00 in0.0 mm
09:10 AM 63.1°F17.3°C 47.7°F8.7°C 57% 16.0 mph S25.7 kmh S 16.0 mph25.7 kmh 29.67 in1004.7 mb 0.00 in0.0 mm 0.00 in/hr0.0 mm/hr 0.00 in0.0 mm
09:20 AM 63.9°F17.7°C 47.9°F8.8°C 56% 15.0 mph WSW24.1 kmh WSW 17.0 mph27.4 kmh 29.68 in1005.1 mb 0.00 in0.0 mm 0.00 in/hr0.0 mm/hr 0.00 in0.0 mm
09:30 AM 64.0°F17.8°C 47.5°F8.6°C 55% 6.0 mph W9.7 kmh W 6.0 mph9.7 kmh 29.68 in1005.1 mb 0.00 in0.0 mm 0.00 in/hr0.0 mm/hr 0.00 in0.0 mm
09:40 AM 64.6°F18.1°C 47.5°F8.6°C 54% 12.0 mph SW19.3 kmh SW 12.0 mph19.3 kmh 29.69 in1005.4 mb 0.00 in0.0 mm 0.00 in/hr0.0 mm/hr 0.00 in0.0 mm
09:50 AM 64.8°F18.2°C 48.2°F9.0°C 55% 9.0 mph SW14.5 kmh SW 9.0 mph14.5 kmh 29.68 in1005.1 mb 0.00 in0.0 mm 0.00 in/hr0.0 mm/hr 0.00 in0.0 mm
10:00 AM 65.1°F18.4°C 48.1°F8.9°C 54% 14.0 mph SW22.5 kmh SW 15.0 mph24.1 kmh 29.69 in1005.4 mb 0.00 in0.0 mm 0.00 in/hr0.0 mm/hr 0.00 in0.0 mm
10:10 AM 65.8°F18.8°C 48.2°F9.0°C 53% 18.0 mph SW29.0 kmh SW 18.0 mph29.0 kmh 29.68 in1005.1 mb 0.00 in0.0 mm 0.00 in/hr0.0 mm/hr 0.00 in0.0 mm
10:20 AM 65.8°F18.8°C 47.2°F8.4°C 51% 12.0 mph WSW19.3 kmh WSW 14.0 mph22.5 kmh 29.68 in1005.1 mb 0.00 in0.0 mm 0.00 in/hr0.0 mm/hr 0.00 in0.0 mm
10:30 AM 65.2°F18.4°C 47.1°F8.4°C 52% 10.0 mph WNW16.1 kmh WNW 13.0 mph20.9 kmh 29.68 in1005.1 mb 0.00 in0.0 mm 0.00 in/hr0.0 mm/hr 0.00 in0.0 mm
10:40 AM 65.5°F18.6°C 46.9°F8.3°C 51% 10.0 mph SSW16.1 kmh SSW 10.0 mph16.1 kmh 29.67 in1004.7 mb 0.00 in0.0 mm 0.00 in/hr0.0 mm/hr 0.00 in0.0 mm
10:50 AM 66.7°F19.3°C 46.4°F8.0°C 48% 10.0 mph WSW16.1 kmh WSW 10.0 mph16.1 kmh 29.68 in1005.1 mb 0.00 in0.0 mm 0.00 in/hr0.0 mm/hr 0.00 in0.0 mm
11:00 AM 66.7°F19.3°C 47.0°F8.3°C 49% 8.0 mph WSW12.9 kmh WSW 9.0 mph14.5 kmh 29.69 in1005.4 mb 0.00 in0.0 mm 0.00 in/hr0.0 mm/hr 0.00 in0.0 mm
11:10 AM 65.1°F18.4°C 48.5°F9.2°C 55% 9.0 mph WSW14.5 kmh WSW 12.0 mph19.3 kmh 29.69 in1005.4 mb 0.00 in0.0 mm 0.00 in/hr0.0 mm/hr 0.00 in0.0 mm
11:20 AM 66.4°F19.1°C 48.7°F9.3°C 53% 3.0 mph SSE4.8 kmh SSE 3.0 mph4.8 kmh 29.69 in1005.4 mb 0.00 in0.0 mm 0.00 in/hr0.0 mm/hr 0.00 in0.0 mm
11:30 AM 66.8°F19.3°C 47.6°F8.7°C 50% 7.0 mph W11.3 kmh W 8.0 mph12.9 kmh 29.70 in1005.8 mb 0.00 in0.0 mm 0.00 in/hr0.0 mm/hr 0.00 in0.0 mm
11:40 AM 66.2°F19.0°C 47.0°F8.3°C 50% 10.0 mph WNW16.1 kmh WNW 13.0 mph20.9 kmh 29.69 in1005.4 mb 0.00 in0.0 mm 0.00 in/hr0.0 mm/hr 0.00 in0.0 mm
11:50 AM 64.9°F18.3°C 48.9°F9.4°C 56% 10.0 mph W16.1 kmh W 10.0 mph16.1 kmh 29.69 in1005.4 mb 0.00 in0.0 mm 0.00 in/hr0.0 mm/hr 0.00 in0.0 mm
12:00 PM 66.5°F19.2°C 46.8°F8.2°C 49% 12.0 mph SW19.3 kmh SW 12.0 mph19.3 kmh 29.69 in1005.4 mb 0.00 in0.0 mm 0.00 in/hr0.0 mm/hr 0.00 in0.0 mm
12:10 PM 66.7°F19.3°C 47.5°F8.6°C 50% 7.0 mph W11.3 kmh W 6.0 mph9.7 kmh 29.69 in1005.4 mb 0.00 in0.0 mm 0.00 in/hr0.0 mm/hr 0.00 in0.0 mm
12:20 PM 67.6°F19.8°C 47.8°F8.8°C 49% 14.0 mph SSW22.5 kmh SSW 15.0 mph24.1 kmh 29.70 in1005.8 mb 0.00 in0.0 mm 0.00 in/hr0.0 mm/hr 0.00 in0.0 mm
12:30 PM 63.5°F17.5°C 49.4°F9.7°C 60% 21.0 mph WNW33.8 kmh WNW 21.0 mph33.8 kmh 29.72 in1006.4 mb 0.00 in0.0 mm 0.00 in/hr0.0 mm/hr 0.00 in0.0 mm
12:40 PM 57.4°F14.1°C 50.6°F10.3°C 78% 15.0 mph W24.1 kmh W 15.0 mph24.1 kmh 29.73 in1006.8 mb 0.00 in0.0 mm 0.00 in/hr0.0 mm/hr 0.00 in0.0 mm
12:50 PM 55.0°F12.8°C 50.3°F10.2°C 84% 12.0 mph W19.3 kmh W 16.0 mph25.7 kmh 29.73 in1006.8 mb 0.06 in1.5 mm 0.36 in/hr9.1 mm/hr 0.06 in1.5 mm
01:00 PM 54.7°F12.6°C 50.3°F10.2°C 85% 12.0 mph WSW19.3 kmh WSW 12.0 mph19.3 kmh 29.74 in1007.1 mb 0.02 in0.5 mm 0.02 in/hr0.5 mm/hr 0.08 in2.0 mm
01:10 PM 54.5°F12.5°C 50.4°F10.2°C 86% 16.0 mph SSW25.7 kmh SSW 16.0 mph25.7 kmh 29.75 in1007.5 mb 0.02 in0.5 mm 0.12 in/hr3.0 mm/hr 0.10 in2.5 mm
01:20 PM 54.1°F12.3°C 50.3°F10.2°C 87% 13.0 mph SW20.9 kmh SW 18.0 mph29.0 kmh 29.75 in1007.5 mb 0.02 in0.5 mm 0.12 in/hr3.0 mm/hr 0.12 in3.0 mm
01:30 PM 53.8°F12.1°C 50.0°F10.0°C 87% 13.0 mph WSW20.9 kmh WSW 13.0 mph20.9 kmh 29.75 in1007.5 mb 0.02 in0.5 mm 0.12 in/hr3.0 mm/hr 0.12 in3.0 mm
01:40 PM 54.3°F12.4°C 50.2°F10.1°C 86% 12.0 mph WSW19.3 kmh WSW 7.0 mph11.3 kmh 29.75 in1007.5 mb 0.04 in1.0 mm 0.24 in/hr6.1 mm/hr 0.16 in4.1 mm
01:50 PM 54.3°F12.4°C 50.2°F10.1°C 86% 7.0 mph SW11.3 kmh SW 12.0 mph19.3 kmh 29.76 in1007.8 mb 0.04 in1.0 mm 0.24 in/hr6.1 mm/hr 0.20 in5.1 mm
02:00 PM 53.8°F12.1°C 49.7°F9.8°C 86% 21.0 mph SW33.8 kmh SW 21.0 mph33.8 kmh 29.76 in1007.8 mb 0.04 in1.0 mm 0.05 in/hr1.3 mm/hr 0.24 in6.1 mm
02:10 PM 53.4°F11.9°C 49.3°F9.6°C 86% 17.0 mph SW27.4 kmh SW 20.0 mph32.2 kmh 29.75 in1007.5 mb 0.04 in1.0 mm 0.24 in/hr6.1 mm/hr 0.28 in7.1 mm
02:20 PM 53.2°F11.8°C 48.8°F9.3°C 85% 15.0 mph SW24.1 kmh SW 15.0 mph24.1 kmh 29.75 in1007.5 mb 0.04 in1.0 mm 0.24 in/hr6.1 mm/hr 0.32 in8.1 mm
02:30 PM 53.4°F11.9°C 49.0°F9.4°C 85% 6.0 mph WSW9.7 kmh WSW 6.0 mph9.7 kmh 29.74 in1007.1 mb 0.02 in0.5 mm 0.12 in/hr3.0 mm/hr 0.34 in8.6 mm
02:40 PM 55.4°F13.0°C 50.0°F10.0°C 82% 9.0 mph S14.5 kmh S 8.0 mph12.9 kmh 29.73 in1006.8 mb 0.04 in1.0 mm 0.24 in/hr6.1 mm/hr 0.38 in9.7 mm
02:50 PM 57.6°F14.2°C 49.0°F9.4°C 73% 12.0 mph SSW19.3 kmh SSW 12.0 mph19.3 kmh 29.72 in1006.4 mb 0.00 in0.0 mm 0.00 in/hr0.0 mm/hr 0.38 in9.7 mm
03:00 PM 58.6°F14.8°C 48.1°F8.9°C 68% 13.0 mph SSW20.9 kmh SSW 12.0 mph19.3 kmh 29.72 in1006.4 mb 0.00 in0.0 mm 0.00 in/hr0.0 mm/hr 0.38 in9.7 mm
03:10 PM 58.8°F14.9°C 47.9°F8.8°C 67% 16.0 mph SW25.7 kmh SW 15.0 mph24.1 kmh 29.72 in1006.4 mb 0.00 in0.0 mm 0.00 in/hr0.0 mm/hr 0.38 in9.7 mm
03:20 PM 59.4°F15.2°C 47.6°F8.7°C 65% 15.0 mph SW24.1 kmh SW 15.0 mph24.1 kmh 29.71 in1006.1 mb 0.00 in0.0 mm 0.00 in/hr0.0 mm/hr 0.38 in9.7 mm
03:30 PM 60.1°F15.6°C 46.6°F8.1°C 61% 13.0 mph SSW20.9 kmh SSW 10.0 mph16.1 kmh 29.70 in1005.8 mb 0.00 in0.0 mm 0.00 in/hr0.0 mm/hr 0.38 in9.7 mm
03:40 PM 60.3°F15.7°C 45.9°F7.7°C 59% 14.0 mph SW22.5 kmh SW 18.0 mph29.0 kmh 29.72 in1006.4 mb 0.00 in0.0 mm 0.00 in/hr0.0 mm/hr 0.38 in9.7 mm
03:50 PM 60.6°F15.9°C 45.8°F7.7°C 58% 21.0 mph S33.8 kmh S 21.0 mph33.8 kmh 29.72 in1006.4 mb 0.00 in0.0 mm 0.00 in/hr0.0 mm/hr 0.38 in9.7 mm
04:00 PM 61.2°F16.2°C 45.3°F7.4°C 56% 17.0 mph SW27.4 kmh SW 17.0 mph27.4 kmh 29.72 in1006.4 mb 0.00 in0.0 mm 0.00 in/hr0.0 mm/hr 0.38 in9.7 mm
04:10 PM 61.0°F16.1°C 45.6°F7.6°C 57% 17.0 mph SSW27.4 kmh SSW 18.0 mph29.0 kmh 29.73 in1006.8 mb 0.00 in0.0 mm 0.00 in/hr0.0 mm/hr 0.38 in9.7 mm
04:20 PM 61.3°F16.3°C 46.4°F8.0°C 58% 8.0 mph SSW12.9 kmh SSW 8.0 mph12.9 kmh 29.74 in1007.1 mb 0.00 in0.0 mm 0.00 in/hr0.0 mm/hr 0.38 in9.7 mm
04:30 PM 60.4°F15.8°C 46.5°F8.1°C 60% 12.0 mph WSW19.3 kmh WSW 10.0 mph16.1 kmh 29.73 in1006.8 mb 0.00 in0.0 mm 0.00 in/hr0.0 mm/hr 0.38 in9.7 mm
04:40 PM 61.1°F16.2°C 47.1°F8.4°C 60% 6.0 mph SW9.7 kmh SW 6.0 mph9.7 kmh 29.73 in1006.8 mb 0.00 in0.0 mm 0.00 in/hr0.0 mm/hr 0.38 in9.7 mm
04:50 PM 61.0°F16.1°C 46.5°F8.1°C 59% 10.0 mph SW16.1 kmh SW 10.0 mph16.1 kmh 29.74 in1007.1 mb 0.00 in0.0 mm 0.00 in/hr0.0 mm/hr 0.38 in9.7 mm
05:00 PM 61.9°F16.6°C 47.4°F8.6°C 59% 9.0 mph WSW14.5 kmh WSW 9.0 mph14.5 kmh 29.74 in1007.1 mb 0.00 in0.0 mm 0.00 in/hr0.0 mm/hr 0.38 in9.7 mm
05:10 PM 62.2°F16.8°C 47.2°F8.4°C 58% 8.0 mph SW12.9 kmh SW 15.0 mph24.1 kmh 29.75 in1007.5 mb 0.00 in0.0 mm 0.00 in/hr0.0 mm/hr 0.38 in9.7 mm
05:20 PM 62.2°F16.8°C 47.7°F8.7°C 59% 10.0 mph WSW16.1 kmh WSW 10.0 mph16.1 kmh 29.75 in1007.5 mb 0.00 in0.0 mm 0.00 in/hr0.0 mm/hr 0.38 in9.7 mm
05:30 PM 61.2°F16.2°C 47.6°F8.7°C 61% 10.0 mph SW16.1 kmh SW 10.0 mph16.1 kmh 29.75 in1007.5 mb 0.00 in0.0 mm 0.00 in/hr0.0 mm/hr 0.38 in9.7 mm
05:40 PM 60.6°F15.9°C 47.5°F8.6°C 62% 12.0 mph SW19.3 kmh SW 14.0 mph22.5 kmh 29.76 in1007.8 mb 0.00 in0.0 mm 0.00 in/hr0.0 mm/hr 0.38 in9.7 mm
05:50 PM 60.4°F15.8°C 47.8°F8.8°C 63% 10.0 mph WSW16.1 kmh WSW 10.0 mph16.1 kmh 29.76 in1007.8 mb 0.00 in0.0 mm 0.00 in/hr0.0 mm/hr 0.38 in9.7 mm
06:00 PM 61.0°F16.1°C 47.9°F8.8°C 62% 6.0 mph SW9.7 kmh SW 5.0 mph8.0 kmh 29.76 in1007.8 mb 0.00 in0.0 mm 0.00 in/hr0.0 mm/hr 0.38 in9.7 mm
06:10 PM 61.0°F16.1°C 47.4°F8.6°C 61% 15.0 mph SW24.1 kmh SW 15.0 mph24.1 kmh 29.76 in1007.8 mb 0.00 in0.0 mm 0.00 in/hr0.0 mm/hr 0.38 in9.7 mm
06:20 PM 61.0°F16.1°C 47.4°F8.6°C 61% 13.0 mph SW20.9 kmh SW 13.0 mph20.9 kmh 29.77 in1008.1 mb 0.00 in0.0 mm 0.00 in/hr0.0 mm/hr 0.38 in9.7 mm
06:30 PM 60.4°F15.8°C 47.4°F8.6°C 62% 13.0 mph SW20.9 kmh SW 14.0 mph22.5 kmh 29.77 in1008.1 mb 0.00 in0.0 mm 0.00 in/hr0.0 mm/hr 0.38 in9.7 mm
06:40 PM 60.1°F15.6°C 47.0°F8.3°C 62% 13.0 mph SSW20.9 kmh SSW 13.0 mph20.9 kmh 29.77 in1008.1 mb 0.00 in0.0 mm 0.00 in/hr0.0 mm/hr 0.38 in9.7 mm
06:50 PM 59.7°F15.4°C 47.1°F8.4°C 63% 13.0 mph SSW20.9 kmh SSW 15.0 mph24.1 kmh 29.77 in1008.1 mb 0.00 in0.0 mm 0.00 in/hr0.0 mm/hr 0.38 in9.7 mm
07:00 PM 59.4°F15.2°C 46.8°F8.2°C 63% 8.0 mph SSW12.9 kmh SSW 8.0 mph12.9 kmh 29.77 in1008.1 mb 0.00 in0.0 mm 0.00 in/hr0.0 mm/hr 0.38 in9.7 mm
07:10 PM 59.2°F15.1°C 46.2°F7.9°C 62% 8.0 mph SSW12.9 kmh SSW 10.0 mph16.1 kmh 29.78 in1008.5 mb 0.00 in0.0 mm 0.00 in/hr0.0 mm/hr 0.38 in9.7 mm
07:20 PM 59.2°F15.1°C 46.1°F7.8°C 62% 8.0 mph SSW12.9 kmh SSW 8.0 mph12.9 kmh 29.79 in1008.8 mb 0.00 in0.0 mm 0.00 in/hr0.0 mm/hr 0.38 in9.7 mm
07:30 PM 59.2°F15.1°C 46.2°F7.9°C 62% 10.0 mph SSW16.1 kmh SSW 10.0 mph16.1 kmh 29.79 in1008.8 mb 0.00 in0.0 mm 0.00 in/hr0.0 mm/hr 0.38 in9.7 mm
07:40 PM 59.0°F15.0°C 46.0°F7.8°C 62% 10.0 mph SW16.1 kmh SW 10.0 mph16.1 kmh 29.80 in1009.1 mb 0.00 in0.0 mm 0.00 in/hr0.0 mm/hr 0.38 in9.7 mm
07:50 PM 59.0°F15.0°C 46.0°F7.8°C 62% 15.0 mph SW24.1 kmh SW 15.0 mph24.1 kmh 29.80 in1009.1 mb 0.00 in0.0 mm 0.00 in/hr0.0 mm/hr 0.38 in9.7 mm
08:00 PM 58.8°F14.9°C 46.2°F7.9°C 63% 12.0 mph SW19.3 kmh SW 12.0 mph19.3 kmh 29.81 in1009.5 mb 0.00 in0.0 mm 0.00 in/hr0.0 mm/hr 0.38 in9.7 mm
08:10 PM 58.8°F14.9°C 46.2°F7.9°C 63% 15.0 mph SSW24.1 kmh SSW 16.0 mph25.7 kmh 29.81 in1009.5 mb 0.00 in0.0 mm 0.00 in/hr0.0 mm/hr 0.38 in9.7 mm
08:20 PM 58.6°F14.8°C 46.1°F7.8°C 63% 9.0 mph SSW14.5 kmh SSW 15.0 mph24.1 kmh 29.82 in1009.8 mb 0.00 in0.0 mm 0.00 in/hr0.0 mm/hr 0.38 in9.7 mm
08:30 PM 58.6°F14.8°C 45.7°F7.6°C 62% 12.0 mph SW19.3 kmh SW 12.0 mph19.3 kmh 29.82 in1009.8 mb 0.00 in0.0 mm 0.00 in/hr0.0 mm/hr 0.38 in9.7 mm
08:40 PM 58.5°F14.7°C 45.5°F7.5°C 62% 12.0 mph SW19.3 kmh SW 17.0 mph27.4 kmh 29.83 in1010.2 mb 0.00 in0.0 mm 0.00 in/hr0.0 mm/hr 0.38 in9.7 mm
08:50 PM 58.6°F14.8°C 45.7°F7.6°C 62% 7.0 mph S11.3 kmh S 9.0 mph14.5 kmh 29.83 in1010.2 mb 0.00 in0.0 mm 0.00 in/hr0.0 mm/hr 0.38 in9.7 mm
09:00 PM 58.6°F14.8°C 45.2°F7.3°C 61% 12.0 mph S19.3 kmh S 12.0 mph19.3 kmh 29.83 in1010.2 mb 0.00 in0.0 mm 0.00 in/hr0.0 mm/hr 0.38 in9.7 mm
09:10 PM 58.8°F14.9°C 45.4°F7.4°C 61% 12.0 mph SW19.3 kmh SW 12.0 mph19.3 kmh 29.84 in1010.5 mb 0.00 in0.0 mm 0.00 in/hr0.0 mm/hr 0.38 in9.7 mm
09:20 PM 58.8°F14.9°C 45.4°F7.4°C 61% 9.0 mph SW14.5 kmh SW 10.0 mph16.1 kmh 29.84 in1010.5 mb 0.00 in0.0 mm 0.00 in/hr0.0 mm/hr 0.38 in9.7 mm
09:30 PM 58.6°F14.8°C 45.2°F7.3°C 61% 5.0 mph SE8.0 kmh SE 3.0 mph4.8 kmh 29.84 in1010.5 mb 0.00 in0.0 mm 0.00 in/hr0.0 mm/hr 0.38 in9.7 mm
09:40 PM 58.6°F14.8°C 45.2°F7.3°C 61% 13.0 mph SW20.9 kmh SW 13.0 mph20.9 kmh 29.85 in1010.8 mb 0.00 in0.0 mm 0.00 in/hr0.0 mm/hr 0.38 in9.7 mm
09:50 PM 58.8°F14.9°C 44.9°F7.2°C 60% 14.0 mph SW22.5 kmh SW 14.0 mph22.5 kmh 29.85 in1010.8 mb 0.00 in0.0 mm 0.00 in/hr0.0 mm/hr 0.38 in9.7 mm
10:00 PM 58.6°F14.8°C 44.8°F7.1°C 60% 9.0 mph SW14.5 kmh SW 9.0 mph14.5 kmh 29.84 in1010.5 mb 0.00 in0.0 mm 0.00 in/hr0.0 mm/hr 0.38 in9.7 mm
10:10 PM 58.3°F14.6°C 44.4°F6.9°C 60% 7.0 mph SW11.3 kmh SW 8.0 mph12.9 kmh 29.85 in1010.8 mb 0.00 in0.0 mm 0.00 in/hr0.0 mm/hr 0.38 in9.7 mm
10:20 PM 58.1°F14.5°C 44.3°F6.8°C 60% 6.0 mph SW9.7 kmh SW 10.0 mph16.1 kmh 29.85 in1010.8 mb 0.00 in0.0 mm 0.00 in/hr0.0 mm/hr 0.38 in9.7 mm
10:30 PM 58.3°F14.6°C 44.0°F6.7°C 59% 7.0 mph SSW11.3 kmh SSW 6.0 mph9.7 kmh 29.85 in1010.8 mb 0.00 in0.0 mm 0.00 in/hr0.0 mm/hr 0.38 in9.7 mm
10:40 PM 58.6°F14.8°C 43.9°F6.6°C 58% 7.0 mph S11.3 kmh S 8.0 mph12.9 kmh 29.85 in1010.8 mb 0.00 in0.0 mm 0.00 in/hr0.0 mm/hr 0.38 in9.7 mm
10:50 PM 58.6°F14.8°C 43.9°F6.6°C 58% 8.0 mph SW12.9 kmh SW 10.0 mph16.1 kmh 29.85 in1010.8 mb 0.00 in0.0 mm 0.00 in/hr0.0 mm/hr 0.38 in9.7 mm
11:00 PM 58.6°F14.8°C 43.9°F6.6°C 58% 8.0 mph SSW12.9 kmh SSW 8.0 mph12.9 kmh 29.85 in1010.8 mb 0.00 in0.0 mm 0.00 in/hr0.0 mm/hr 0.40 in10.2 mm
11:10 PM 58.6°F14.8°C 43.4°F6.3°C 57% 10.0 mph SSE16.1 kmh SSE 12.0 mph19.3 kmh 29.85 in1010.8 mb 0.00 in0.0 mm 0.00 in/hr0.0 mm/hr 0.40 in10.2 mm